createdAt,value
2022-08-19T00:01:45.709Z,99.90
2022-08-19T00:04:27.159Z,99.90
2022-08-19T00:06:56.120Z,99.90
2022-08-19T00:09:29.874Z,99.90
2022-08-19T00:11:58.394Z,99.90
2022-08-19T00:14:26.934Z,99.90
2022-08-19T00:16:56.068Z,99.90
2022-08-19T00:19:24.433Z,99.90
2022-08-19T00:21:52.684Z,99.90
2022-08-19T00:24:22.234Z,99.90
2022-08-19T00:26:51.613Z,99.90
2022-08-19T00:29:22.560Z,99.90
2022-08-19T00:31:52.413Z,99.90
2022-08-19T00:34:21.213Z,99.90
2022-08-19T00:36:49.319Z,99.90
2022-08-19T00:39:18.440Z,99.90
2022-08-19T00:41:49.026Z,99.90
2022-08-19T00:44:21.386Z,99.90
2022-08-19T00:46:58.290Z,99.90
2022-08-19T00:49:35.314Z,99.90
2022-08-19T00:52:08.728Z,99.90
2022-08-19T00:54:39.066Z,99.90
2022-08-19T00:57:09.002Z,99.90
2022-08-19T00:59:56.312Z,99.90
2022-08-19T01:02:28.832Z,99.90
2022-08-19T01:05:00.949Z,99.90
2022-08-19T01:07:35.857Z,99.90
2022-08-19T01:10:08.020Z,99.90
2022-08-19T01:12:36.408Z,99.90
2022-08-19T01:15:05.005Z,99.90
2022-08-19T01:17:33.796Z,99.90
2022-08-19T01:20:02.135Z,99.90
2022-08-19T01:22:34.040Z,99.90
2022-08-19T01:25:03.549Z,99.90
2022-08-19T01:27:43.177Z,99.90
2022-08-19T01:30:15.933Z,99.90
2022-08-19T01:32:44.692Z,99.90
2022-08-19T01:35:14.559Z,99.80
2022-08-19T01:37:55.181Z,99.60
2022-08-19T01:40:24.475Z,99.50
2022-08-19T01:42:53.931Z,99.20
2022-08-19T01:45:23.891Z,99.10
2022-08-19T01:48:01.733Z,99.00
2022-08-19T01:50:33.121Z,98.90
2022-08-19T01:53:07.630Z,98.60
2022-08-19T01:55:41.317Z,98.70
2022-08-19T01:58:31.896Z,98.70
2022-08-19T02:01:00.175Z,98.50
2022-08-19T02:03:28.951Z,98.40
2022-08-19T02:06:01.493Z,98.40
2022-08-19T02:08:29.403Z,98.40
2022-08-19T02:10:58.198Z,98.40
2022-08-19T02:13:26.873Z,98.40
2022-08-19T02:15:54.630Z,98.40
2022-08-19T02:18:22.387Z,98.30
2022-08-19T02:20:56.996Z,98.40
2022-08-19T02:23:25.826Z,97.90
2022-08-19T02:25:53.839Z,98.10
2022-08-19T02:28:21.691Z,98.00
2022-08-19T02:30:49.691Z,98.00
2022-08-19T02:33:19.408Z,98.00
2022-08-19T02:35:47.995Z,98.20
2022-08-19T02:38:28.592Z,98.10
2022-08-19T02:41:01.483Z,98.10
2022-08-19T02:43:33.814Z,98.30
2022-08-19T02:46:02.936Z,97.80
2022-08-19T02:48:34.444Z,97.80
2022-08-19T02:51:02.840Z,97.30
2022-08-19T02:53:31.931Z,97.50
2022-08-19T02:56:00.286Z,97.50
2022-08-19T02:58:29.424Z,97.40
2022-08-19T03:00:59.130Z,96.90
2022-08-19T03:03:26.994Z,96.90
2022-08-19T03:06:05.200Z,97.00
2022-08-19T03:08:33.379Z,97.10
2022-08-19T03:11:06.940Z,96.60
2022-08-19T03:13:34.918Z,96.30
2022-08-19T03:16:08.878Z,96.40
2022-08-19T03:18:37.586Z,95.90
2022-08-19T03:21:07.376Z,96.10
2022-08-19T03:23:42.373Z,96.20
2022-08-19T03:26:16.211Z,96.50
2022-08-19T03:28:51.842Z,96.20
2022-08-19T03:31:45.589Z,96.10
2022-08-19T03:34:19.046Z,95.00
2022-08-19T03:36:48.018Z,95.20
2022-08-19T03:39:16.292Z,95.30
2022-08-19T03:41:46.664Z,95.30
2022-08-19T03:44:21.505Z,95.50
2022-08-19T03:46:52.113Z,94.70
2022-08-19T03:49:21.292Z,94.60
2022-08-19T03:51:56.274Z,94.90
2022-08-19T03:54:26.165Z,94.80
2022-08-19T03:56:58.091Z,94.90
2022-08-19T03:59:28.087Z,94.90
2022-08-19T04:01:56.989Z,94.90
2022-08-19T04:04:28.980Z,95.00
2022-08-19T04:06:58.371Z,95.00
2022-08-19T04:09:29.749Z,95.40
2022-08-19T04:11:59.067Z,95.20
2022-08-19T04:14:34.565Z,95.10
2022-08-19T04:17:08.362Z,95.40
2022-08-19T04:19:37.453Z,94.60
2022-08-19T04:22:05.875Z,94.80
2022-08-19T04:24:34.019Z,94.70
2022-08-19T04:27:03.260Z,95.10
2022-08-19T04:29:31.645Z,95.10
2022-08-19T04:32:00.255Z,94.90
2022-08-19T04:35:02.516Z,94.80
2022-08-19T04:37:34.991Z,95.10
2022-08-19T04:40:17.670Z,94.80
2022-08-19T04:42:45.983Z,94.60
2022-08-19T04:45:36.288Z,94.70
2022-08-19T04:48:26.336Z,94.20
2022-08-19T04:54:03.271Z,94.30
2022-08-19T04:56:31.142Z,94.00
2022-08-19T04:58:59.253Z,94.50
2022-08-19T05:01:33.731Z,94.10
2022-08-19T05:04:12.026Z,93.70
2022-08-19T05:06:40.903Z,94.30
2022-08-19T05:09:08.785Z,94.60
2022-08-19T05:11:51.554Z,94.00
2022-08-19T05:14:21.195Z,94.00
2022-08-19T05:16:49.012Z,94.20
2022-08-19T05:19:29.912Z,93.80
2022-08-19T05:22:15.220Z,93.20
2022-08-19T05:25:02.544Z,93.00
2022-08-19T05:27:31.808Z,92.80
2022-08-19T05:30:14.690Z,94.00
2022-08-19T05:32:44.002Z,93.40
2022-08-19T05:35:12.955Z,93.70
2022-08-19T05:37:41.726Z,93.30
2022-08-19T05:40:13.096Z,92.30
2022-08-19T05:42:40.958Z,93.30
2022-08-19T05:45:09.625Z,93.00
2022-08-19T05:47:42.190Z,93.10
2022-08-19T05:50:16.317Z,93.20
2022-08-19T05:52:50.685Z,92.30
2022-08-19T05:55:21.890Z,92.80
2022-08-19T05:57:50.218Z,92.40
2022-08-19T06:00:22.633Z,92.90
2022-08-19T06:02:58.206Z,91.60
2022-08-19T06:05:28.780Z,92.00
2022-08-19T06:07:56.598Z,92.50
2022-08-19T06:10:25.208Z,92.50
2022-08-19T06:12:53.502Z,91.80
2022-08-19T06:15:21.278Z,91.10
2022-08-19T06:18:07.582Z,91.70
2022-08-19T06:20:55.157Z,91.20
2022-08-19T06:23:24.311Z,91.60
2022-08-19T06:25:52.732Z,91.50
2022-08-19T06:28:25.352Z,91.10
2022-08-19T06:30:53.030Z,91.10
2022-08-19T06:33:21.611Z,90.80
2022-08-19T06:35:49.975Z,90.90
2022-08-19T06:38:26.974Z,89.50
2022-08-19T06:41:02.201Z,90.00
2022-08-19T06:43:42.254Z,88.70
2022-08-19T06:46:15.624Z,86.80
2022-08-19T06:48:45.131Z,87.40
2022-08-19T06:51:19.295Z,89.60
2022-08-19T06:56:21.756Z,85.90
2022-08-19T06:58:53.094Z,88.30
2022-08-19T07:01:22.719Z,90.80
2022-08-19T07:03:50.896Z,90.40
2022-08-19T07:06:43.628Z,90.50
2022-08-19T07:09:14.203Z,90.00
2022-08-19T07:11:46.066Z,90.70
2022-08-19T07:14:19.314Z,90.80
2022-08-19T07:16:53.847Z,90.70
2022-08-19T07:19:22.436Z,90.60
2022-08-19T07:21:52.125Z,90.10
2022-08-19T07:24:20.834Z,87.10
2022-08-19T07:26:51.650Z,88.80
2022-08-19T07:29:25.618Z,85.50
2022-08-19T07:32:00.924Z,88.80
2022-08-19T07:37:05.152Z,90.50
2022-08-19T07:39:44.383Z,90.60
2022-08-19T07:42:13.248Z,88.30
2022-08-19T07:44:42.062Z,88.30
2022-08-19T07:47:47.533Z,88.30
2022-08-19T07:49:59.216Z,89.90
2022-08-19T07:52:27.050Z,87.70
2022-08-19T07:54:54.988Z,87.30
2022-08-19T07:57:23.583Z,85.80
2022-08-19T07:59:52.549Z,84.90
2022-08-19T08:02:20.523Z,86.50
2022-08-19T08:05:01.660Z,85.60
2022-08-19T08:07:46.255Z,85.20
2022-08-19T08:10:21.188Z,87.50
2022-08-19T08:13:09.056Z,88.20
2022-08-19T08:15:42.135Z,89.80
2022-08-19T08:18:12.620Z,86.80
2022-08-19T08:20:45.754Z,88.40
2022-08-19T08:23:26.065Z,88.40
2022-08-19T08:25:56.253Z,88.30
2022-08-19T08:28:24.905Z,88.90
2022-08-19T08:30:54.267Z,88.50
2022-08-19T08:33:30.239Z,88.70
2022-08-19T08:36:01.464Z,87.80
2022-08-19T08:38:39.044Z,88.90
2022-08-19T08:41:11.160Z,88.80
2022-08-19T08:43:40.915Z,88.00
2022-08-19T08:46:30.588Z,85.70
2022-08-19T08:49:42.601Z,86.90
2022-08-19T08:52:37.709Z,87.30
2022-08-19T08:55:12.060Z,86.80
2022-08-19T08:57:56.228Z,88.20
2022-08-19T09:00:31.315Z,83.70
2022-08-19T09:02:59.586Z,88.80
2022-08-19T09:05:52.956Z,87.90
2022-08-19T09:08:33.450Z,89.00
2022-08-19T09:11:03.880Z,88.50
2022-08-19T09:13:53.624Z,88.80
2022-08-19T09:16:31.389Z,89.20
2022-08-19T09:19:02.735Z,89.20
2022-08-19T09:21:34.199Z,89.80
2022-08-19T09:24:03.432Z,90.00
2022-08-19T09:26:47.568Z,90.10
2022-08-19T09:29:23.205Z,89.30
2022-08-19T09:31:51.689Z,88.70
2022-08-19T09:34:22.231Z,90.20
2022-08-19T09:36:54.933Z,90.40
2022-08-19T09:39:23.391Z,90.40
2022-08-19T09:41:54.356Z,90.30
2022-08-19T09:44:22.465Z,90.40
2022-08-19T09:46:53.576Z,90.60
2022-08-19T09:49:24.505Z,90.80
2022-08-19T09:51:54.897Z,91.00
2022-08-19T09:54:23.852Z,90.90
2022-08-19T09:56:54.731Z,90.90
2022-08-19T09:59:31.638Z,90.90
2022-08-19T10:02:03.833Z,91.00
2022-08-19T10:04:52.652Z,91.10
2022-08-19T10:07:21.707Z,91.10
2022-08-19T10:10:09.040Z,90.90
2022-08-19T10:12:37.081Z,90.80
2022-08-19T10:15:06.901Z,90.90
2022-08-19T10:17:36.908Z,91.40
2022-08-19T10:20:05.772Z,91.60
2022-08-19T10:22:33.591Z,91.70
2022-08-19T10:25:31.163Z,92.10
2022-08-19T10:28:02.766Z,92.00
2022-08-19T10:30:30.720Z,92.60
2022-08-19T10:32:59.343Z,93.10
2022-08-19T10:35:29.220Z,93.10
2022-08-19T10:38:02.144Z,93.30
2022-08-19T10:40:30.147Z,93.30
2022-08-19T10:42:57.981Z,93.70
2022-08-19T10:45:28.314Z,93.60
2022-08-19T10:47:56.542Z,93.80
2022-08-19T10:50:36.923Z,93.80
2022-08-19T10:53:09.974Z,94.40
2022-08-19T10:55:50.411Z,94.00
2022-08-19T10:58:23.598Z,94.60
2022-08-19T11:00:55.990Z,95.60
2022-08-19T11:03:24.474Z,95.50
2022-08-19T11:06:03.364Z,95.30
2022-08-19T11:08:32.481Z,95.40
2022-08-19T11:11:03.459Z,95.90
2022-08-19T11:13:39.459Z,95.70
2022-08-19T11:16:11.260Z,96.40
2022-08-19T11:18:40.267Z,96.80
2022-08-19T11:21:18.425Z,97.20
2022-08-19T11:23:48.133Z,97.30
2022-08-19T11:26:17.275Z,97.10
2022-08-19T11:28:45.308Z,97.40
2022-08-19T11:31:18.820Z,97.60
2022-08-19T11:33:47.980Z,97.80
2022-08-19T11:36:17.671Z,98.00
2022-08-19T11:38:46.477Z,97.90
2022-08-19T11:41:14.261Z,98.10
2022-08-19T11:43:42.125Z,98.10
2022-08-19T11:46:11.695Z,97.90
2022-08-19T11:48:40.553Z,98.60
2022-08-19T11:51:12.006Z,98.50
2022-08-19T11:53:41.295Z,98.60
2022-08-19T11:56:10.833Z,98.60
2022-08-19T11:58:38.643Z,98.40
2022-08-19T12:01:09.075Z,98.70
2022-08-19T12:03:37.861Z,98.60
2022-08-19T12:06:07.750Z,98.50
2022-08-19T12:08:36.633Z,98.60
2022-08-19T12:11:04.366Z,98.80
2022-08-19T12:13:32.539Z,99.00
2022-08-19T12:16:01.952Z,99.10
2022-08-19T12:18:29.838Z,99.30
2022-08-19T12:20:57.784Z,99.40
2022-08-19T12:23:25.645Z,98.80
2022-08-19T12:25:53.369Z,99.10
2022-08-19T12:28:21.754Z,99.40
2022-08-19T12:30:50.483Z,99.20
2022-08-19T12:33:18.823Z,99.00
2022-08-19T12:35:48.751Z,99.30
2022-08-19T12:38:16.714Z,99.10
2022-08-19T12:40:48.133Z,99.00
2022-08-19T12:43:17.194Z,99.30
2022-08-19T12:45:47.303Z,98.80
2022-08-19T12:48:34.536Z,99.00
2022-08-19T12:51:08.961Z,99.10
2022-08-19T12:53:39.103Z,98.90
2022-08-19T12:56:11.436Z,98.90
2022-08-19T12:58:40.589Z,98.90
2022-08-19T13:01:10.188Z,98.90
2022-08-19T13:03:40.617Z,99.00
2022-08-19T13:06:10.263Z,99.30
2022-08-19T13:08:38.215Z,99.30
2022-08-19T13:11:12.322Z,99.30
2022-08-19T13:13:42.437Z,99.10
2022-08-19T13:16:12.464Z,99.30
2022-08-19T13:18:44.470Z,98.90
2022-08-19T13:21:15.899Z,98.10
2022-08-19T13:23:43.689Z,98.40
2022-08-19T13:26:12.757Z,98.30
2022-08-19T13:28:53.881Z,98.40
2022-08-19T13:31:35.964Z,98.50
2022-08-19T13:34:05.049Z,98.40
2022-08-19T13:36:34.406Z,98.30
2022-08-19T13:39:05.975Z,98.10
2022-08-19T13:41:34.989Z,98.00
2022-08-19T13:44:03.290Z,98.20
2022-08-19T13:46:32.781Z,98.30
2022-08-19T13:49:00.482Z,98.40
2022-08-19T13:51:29.352Z,98.20
2022-08-19T13:53:58.005Z,98.10
2022-08-19T13:56:26.694Z,98.00
2022-08-19T13:58:55.061Z,98.10
2022-08-19T14:01:29.003Z,98.20
2022-08-19T14:03:57.279Z,98.20
2022-08-19T14:06:24.947Z,98.30
2022-08-19T14:08:54.255Z,98.40
2022-08-19T14:11:24.235Z,98.40
2022-08-19T14:13:55.813Z,98.30
2022-08-19T14:16:24.146Z,98.30
2022-08-19T14:18:52.004Z,98.50
2022-08-19T14:21:23.225Z,98.40
2022-08-19T14:23:51.327Z,98.50
2022-08-19T14:26:22.832Z,98.40
2022-08-19T14:28:51.551Z,98.50
2022-08-19T14:31:22.265Z,98.60
2022-08-19T14:33:49.993Z,98.50
2022-08-19T14:36:18.761Z,98.50
2022-08-19T14:38:46.651Z,98.70
2022-08-19T14:41:21.528Z,98.60
2022-08-19T14:43:51.487Z,98.50
2022-08-19T14:46:21.830Z,98.70
2022-08-19T14:48:51.695Z,98.50
2022-08-19T14:51:21.541Z,98.40
2022-08-19T14:53:50.796Z,98.60
2022-08-19T14:56:28.603Z,98.40
2022-08-19T14:58:58.525Z,98.50
2022-08-19T15:01:26.763Z,98.60
2022-08-19T15:03:56.066Z,98.20
2022-08-19T15:06:24.898Z,98.10
2022-08-19T15:08:54.673Z,98.10
2022-08-19T15:11:24.925Z,97.90
2022-08-19T15:13:52.791Z,98.10
2022-08-19T15:16:21.191Z,98.00
2022-08-19T15:18:54.466Z,98.30
2022-08-19T15:21:26.702Z,97.80
2022-08-19T15:23:57.345Z,97.70
2022-08-19T15:26:26.487Z,97.70
2022-08-19T15:28:54.522Z,97.90
2022-08-19T15:31:28.780Z,98.00
2022-08-19T15:33:59.289Z,98.10
2022-08-19T15:36:28.710Z,98.40
2022-08-19T15:38:58.287Z,98.60
2022-08-19T15:41:28.444Z,98.60
2022-08-19T15:44:00.041Z,98.50
2022-08-19T15:46:30.580Z,98.60
2022-08-19T15:49:00.077Z,98.50
2022-08-19T15:51:30.965Z,98.80
2022-08-19T15:54:00.117Z,98.70
2022-08-19T15:56:57.876Z,98.70
2022-08-19T15:59:43.705Z,98.60
2022-08-19T16:02:32.197Z,98.60
2022-08-19T16:05:13.159Z,98.60
2022-08-19T16:07:40.999Z,98.80
2022-08-19T16:10:27.179Z,98.90
2022-08-19T16:12:57.470Z,98.80
2022-08-19T16:15:28.181Z,98.70
2022-08-19T16:17:57.577Z,98.10
2022-08-19T16:20:28.147Z,98.00
2022-08-19T16:22:58.811Z,98.10
2022-08-19T16:25:30.221Z,97.90
2022-08-19T16:28:06.639Z,98.00
2022-08-19T16:30:37.150Z,98.30
2022-08-19T16:33:05.129Z,98.10
2022-08-19T16:35:33.601Z,98.00
2022-08-19T16:38:02.369Z,97.90
2022-08-19T16:40:30.148Z,97.90
2022-08-19T16:42:57.891Z,97.90
2022-08-19T16:45:25.568Z,97.90
2022-08-19T16:47:53.881Z,97.80
2022-08-19T16:50:45.795Z,97.90
2022-08-19T16:53:13.137Z,98.00
2022-08-19T16:55:41.540Z,97.90
2022-08-19T16:58:10.088Z,98.00
2022-08-19T17:00:37.925Z,97.90
2022-08-19T17:03:14.612Z,97.90
2022-08-19T17:05:45.599Z,98.00
2022-08-19T17:08:14.517Z,98.00
2022-08-19T17:10:52.490Z,98.00
2022-08-19T17:13:26.817Z,98.10
2022-08-19T17:15:55.011Z,98.20
2022-08-19T17:18:23.864Z,98.20
2022-08-19T17:20:52.995Z,98.30
2022-08-19T17:23:43.051Z,98.30
2022-08-19T17:26:17.941Z,98.60
2022-08-19T17:28:50.167Z,98.10
2022-08-19T17:31:19.238Z,98.10
2022-08-19T17:33:48.259Z,98.10
2022-08-19T17:36:24.618Z,98.00
2022-08-19T17:38:55.588Z,98.00
2022-08-19T17:41:24.592Z,98.10
2022-08-19T17:43:52.785Z,98.40
2022-08-19T17:46:20.817Z,98.00
2022-08-19T17:48:53.082Z,97.90
2022-08-19T17:51:22.849Z,98.00
2022-08-19T17:53:52.162Z,98.10
2022-08-19T17:56:20.450Z,98.20
2022-08-19T17:58:59.633Z,98.30
2022-08-19T18:01:32.729Z,98.60
2022-08-19T18:04:17.796Z,98.70
2022-08-19T18:06:46.574Z,98.10
2022-08-19T18:09:24.052Z,98.20
2022-08-19T18:11:53.833Z,97.40
2022-08-19T18:14:32.801Z,96.80
2022-08-19T18:17:09.612Z,96.60
2022-08-19T18:19:41.667Z,96.80
2022-08-19T18:22:11.818Z,97.50
2022-08-19T18:24:41.690Z,98.30
2022-08-19T18:27:11.179Z,98.30
2022-08-19T18:29:40.508Z,98.50
2022-08-19T18:32:15.439Z,98.80
2022-08-19T18:34:44.579Z,98.90
2022-08-19T18:37:13.009Z,99.10
2022-08-19T18:39:52.963Z,99.60
2022-08-19T18:42:33.769Z,99.50
2022-08-19T18:45:14.557Z,99.90
2022-08-19T18:47:54.588Z,99.70
2022-08-19T18:50:22.450Z,99.70
2022-08-19T18:52:50.235Z,99.80
2022-08-19T18:55:19.557Z,99.80
2022-08-19T18:57:48.139Z,99.90
2022-08-19T19:00:18.232Z,99.90
2022-08-19T19:02:47.712Z,99.90
2022-08-19T19:05:16.483Z,99.90
2022-08-19T19:07:44.332Z,99.90
2022-08-19T19:10:12.001Z,99.90
2022-08-19T19:12:42.151Z,99.90
2022-08-19T19:15:14.536Z,99.90
2022-08-19T19:17:42.381Z,99.90
2022-08-19T19:20:11.195Z,99.90
2022-08-19T19:22:39.027Z,99.90
2022-08-19T19:25:08.545Z,99.90
2022-08-19T19:27:37.111Z,99.90
2022-08-19T19:30:05.871Z,99.90
2022-08-19T19:32:39.165Z,99.90
2022-08-19T19:35:08.358Z,99.90
2022-08-19T19:37:36.137Z,99.90
2022-08-19T19:40:05.453Z,99.90
2022-08-19T19:42:33.150Z,99.90
2022-08-19T19:45:02.409Z,99.90
2022-08-19T19:47:30.718Z,99.90
2022-08-19T19:50:15.869Z,99.90
2022-08-19T19:52:46.967Z,99.90
2022-08-19T19:55:18.540Z,99.90
2022-08-19T19:57:47.231Z,99.90
2022-08-19T20:00:17.680Z,99.90
2022-08-19T20:02:49.606Z,99.90
2022-08-19T20:05:22.307Z,99.90
2022-08-19T20:08:02.856Z,99.90
2022-08-19T20:10:33.511Z,99.90
2022-08-19T20:13:02.812Z,99.90
2022-08-19T20:15:32.383Z,99.90
2022-08-19T20:18:01.368Z,99.90
2022-08-19T20:20:29.023Z,99.90
2022-08-19T20:22:56.696Z,99.90
2022-08-19T20:25:25.445Z,99.90
2022-08-19T20:27:53.319Z,99.90
2022-08-19T20:30:23.477Z,99.90
2022-08-19T20:32:51.638Z,99.90
2022-08-19T20:35:22.362Z,99.90
2022-08-19T20:37:53.886Z,99.90
2022-08-19T20:40:25.214Z,99.90
2022-08-19T20:42:53.766Z,99.90
2022-08-19T20:45:33.126Z,99.90
2022-08-19T20:48:03.410Z,99.90
2022-08-19T20:50:33.530Z,99.90
2022-08-19T20:53:01.706Z,99.90
2022-08-19T20:55:30.730Z,99.90
2022-08-19T20:57:59.903Z,99.90
2022-08-19T21:00:31.709Z,99.90
2022-08-19T21:03:00.268Z,99.90
2022-08-19T21:05:30.609Z,99.90
2022-08-19T21:07:58.757Z,99.90
2022-08-19T21:10:27.648Z,99.90
2022-08-19T21:12:55.927Z,99.90
2022-08-19T21:15:24.995Z,99.90
2022-08-19T21:17:52.760Z,99.90
2022-08-19T21:20:20.602Z,99.90
2022-08-19T21:22:49.151Z,99.90
2022-08-19T21:25:17.657Z,99.90
2022-08-19T21:27:45.755Z,99.90
2022-08-19T21:30:13.974Z,99.90
2022-08-19T21:32:41.735Z,99.90
2022-08-19T21:35:10.407Z,99.90
2022-08-19T21:37:39.117Z,99.90
2022-08-19T21:40:07.511Z,99.90
2022-08-19T21:42:35.468Z,99.90
2022-08-19T21:45:03.575Z,99.90
2022-08-19T21:47:31.297Z,99.90
2022-08-19T21:49:59.817Z,99.90
2022-08-19T21:52:27.815Z,99.90
2022-08-19T21:54:55.690Z,99.90
2022-08-19T21:57:24.904Z,99.90
2022-08-19T21:59:55.673Z,99.90
2022-08-19T22:02:24.214Z,99.90
2022-08-19T22:04:52.935Z,99.90
2022-08-19T22:07:21.802Z,99.90
2022-08-19T22:09:50.392Z,99.90
2022-08-19T22:12:23.613Z,99.90
2022-08-19T22:14:52.271Z,99.90
2022-08-19T22:17:21.341Z,99.90
2022-08-19T22:19:49.606Z,99.90
2022-08-19T22:22:25.959Z,99.90
2022-08-19T22:24:54.056Z,99.90
2022-08-19T22:27:22.755Z,99.90
2022-08-19T22:29:52.534Z,99.90
2022-08-19T22:32:26.527Z,99.90
2022-08-19T22:34:58.601Z,99.90
2022-08-19T22:37:26.722Z,99.90
2022-08-19T22:39:54.499Z,99.90
2022-08-19T22:42:23.590Z,99.90
2022-08-19T22:44:52.730Z,99.90
2022-08-19T22:47:22.107Z,99.90
2022-08-19T22:49:53.801Z,99.90
2022-08-19T22:52:23.328Z,99.90
2022-08-19T22:54:52.042Z,99.90
2022-08-19T22:57:20.257Z,99.90
2022-08-19T22:59:48.913Z,99.90
2022-08-19T23:02:24.465Z,99.90
2022-08-19T23:04:52.642Z,99.90
2022-08-19T23:07:23.616Z,99.90
2022-08-19T23:09:51.610Z,99.90
2022-08-19T23:12:33.533Z,99.90
2022-08-19T23:15:06.419Z,99.90
2022-08-19T23:17:35.076Z,99.90
2022-08-19T23:20:03.058Z,99.90
2022-08-19T23:22:30.948Z,99.90
2022-08-19T23:25:05.750Z,99.90
2022-08-19T23:27:45.704Z,99.90
2022-08-19T23:30:26.661Z,99.90
2022-08-19T23:32:59.795Z,99.90
2022-08-19T23:35:29.105Z,99.90
2022-08-19T23:37:57.782Z,99.90
2022-08-19T23:40:25.443Z,99.90
2022-08-19T23:42:53.117Z,99.90
2022-08-19T23:45:23.922Z,99.90
2022-08-19T23:47:53.438Z,99.90
2022-08-19T23:50:22.256Z,99.90
2022-08-19T23:52:58.915Z,99.90
2022-08-19T23:55:30.980Z,99.90
2022-08-19T23:57:58.709Z,99.90
